createdAt,value
2019-05-10T00:02:51.015Z,11.29
2019-05-10T00:06:12.981Z,11.30
2019-05-10T00:09:16.648Z,11.23
2019-05-10T00:12:22.977Z,11.17
2019-05-10T00:15:28.523Z,11.08
2019-05-10T00:18:33.255Z,10.96
2019-05-10T00:21:37.986Z,10.92
2019-05-10T00:24:42.434Z,10.94
2019-05-10T00:27:46.871Z,11.01
2019-05-10T00:30:51.568Z,11.24
2019-05-10T00:33:56.011Z,11.38
2019-05-10T00:37:00.719Z,11.46
2019-05-10T00:40:07.703Z,11.35
2019-05-10T00:43:12.137Z,11.33
2019-05-10T00:46:16.578Z,11.21
2019-05-10T00:49:21.279Z,11.11
2019-05-10T00:52:25.729Z,10.95
2019-05-10T00:55:30.442Z,10.80
2019-05-10T00:58:34.945Z,10.78
2019-05-10T01:01:39.410Z,10.75
2019-05-10T01:04:43.843Z,10.70
2019-05-10T01:07:48.276Z,10.75
2019-05-10T01:10:52.959Z,10.85
2019-05-10T01:13:57.395Z,10.77
2019-05-10T01:17:01.868Z,10.76
2019-05-10T01:20:08.277Z,10.72
2019-05-10T01:23:13.019Z,10.67
2019-05-10T01:26:17.752Z,10.61
2019-05-10T01:29:22.173Z,10.57
2019-05-10T01:32:26.614Z,10.70
2019-05-10T01:35:31.423Z,10.63
2019-05-10T01:38:36.151Z,10.66
2019-05-10T01:41:40.883Z,10.59
2019-05-10T01:44:45.320Z,10.60
2019-05-10T01:47:49.764Z,10.59
2019-05-10T01:50:54.463Z,10.65
2019-05-10T01:53:58.908Z,10.60
2019-05-10T01:57:03.360Z,10.51
2019-05-10T02:00:09.095Z,10.60
2019-05-10T02:03:13.898Z,10.59
2019-05-10T02:06:18.337Z,10.50
2019-05-10T02:09:23.254Z,10.42
2019-05-10T02:12:27.993Z,10.44
2019-05-10T02:15:32.423Z,10.42
2019-05-10T02:18:36.863Z,10.42
2019-05-10T02:21:41.566Z,10.39
2019-05-10T02:24:46.302Z,10.44
2019-05-10T02:27:50.814Z,10.52
2019-05-10T02:30:55.250Z,10.51
2019-05-10T02:33:59.984Z,10.63
2019-05-10T02:37:04.411Z,10.69
2019-05-10T02:40:09.011Z,10.56
2019-05-10T02:43:13.756Z,10.51
2019-05-10T02:46:18.263Z,10.40
2019-05-10T02:49:23.017Z,10.22
2019-05-10T02:52:27.750Z,10.30
2019-05-10T02:55:32.561Z,10.15
2019-05-10T02:58:37.925Z,10.15
2019-05-10T03:01:45.813Z,10.20
2019-05-10T03:04:50.592Z,10.33
2019-05-10T03:07:56.922Z,10.23
2019-05-10T03:11:01.361Z,10.25
2019-05-10T03:14:12.025Z,10.32
2019-05-10T03:17:18.093Z,10.31
2019-05-10T03:20:23.224Z,10.14
2019-05-10T03:23:27.835Z,10.03
2019-05-10T03:26:49.599Z,10.15
2019-05-10T03:29:39.151Z,9.98
2019-05-10T03:32:43.591Z,9.87
2019-05-10T03:35:48.084Z,9.86
2019-05-10T03:38:52.594Z,9.77
2019-05-10T03:41:57.040Z,9.85
2019-05-10T03:45:01.480Z,9.85
2019-05-10T03:48:05.875Z,9.89
2019-05-10T03:51:10.309Z,9.83
2019-05-10T03:54:15.056Z,9.88
2019-05-10T03:57:19.483Z,9.84
2019-05-10T04:00:23.992Z,9.84
2019-05-10T04:03:28.416Z,9.80
2019-05-10T04:06:32.847Z,9.83
2019-05-10T04:09:37.582Z,9.93
2019-05-10T04:12:42.342Z,10.00
2019-05-10T04:15:46.828Z,10.06
2019-05-10T04:18:51.574Z,10.08
2019-05-10T04:21:56.008Z,10.04
2019-05-10T04:25:00.521Z,10.00
2019-05-10T04:28:04.948Z,9.97
2019-05-10T04:31:09.382Z,10.18
2019-05-10T04:34:13.821Z,10.11
2019-05-10T04:37:18.252Z,10.06
2019-05-10T04:40:22.688Z,10.08
2019-05-10T04:43:27.132Z,10.27
2019-05-10T04:46:31.898Z,10.31
2019-05-10T04:49:36.633Z,10.25
2019-05-10T04:52:41.068Z,10.17
2019-05-10T04:55:45.526Z,10.22
2019-05-10T04:58:49.953Z,10.18
2019-05-10T05:01:54.744Z,10.29
2019-05-10T05:04:59.196Z,10.30
2019-05-10T05:08:06.261Z,10.34
2019-05-10T05:11:10.154Z,10.43
2019-05-10T05:14:14.588Z,10.45
2019-05-10T05:17:19.305Z,10.61
2019-05-10T05:20:24.044Z,10.84
2019-05-10T05:23:28.507Z,11.01
2019-05-10T05:26:32.927Z,11.00
2019-05-10T05:29:37.359Z,10.97
2019-05-10T05:32:44.308Z,11.04
2019-05-10T05:35:48.741Z,11.12
2019-05-10T05:38:53.177Z,11.23
2019-05-10T05:41:57.631Z,11.34
2019-05-10T05:45:02.497Z,11.46
2019-05-10T05:48:06.939Z,11.63
2019-05-10T05:51:11.401Z,11.73
2019-05-10T05:54:20.917Z,11.81
2019-05-10T05:57:26.897Z,11.90
2019-05-10T06:00:28.168Z,11.96
2019-05-10T06:03:32.613Z,12.14
2019-05-10T06:06:37.051Z,12.34
2019-05-10T06:09:41.780Z,12.52
2019-05-10T06:12:50.397Z,12.63
2019-05-10T06:15:52.986Z,12.68
2019-05-10T06:18:57.431Z,13.02
2019-05-10T06:22:04.593Z,13.01
2019-05-10T06:25:08.483Z,13.20
2019-05-10T06:28:26.266Z,13.54
2019-05-10T06:31:19.707Z,13.63
2019-05-10T06:34:24.141Z,13.82
2019-05-10T06:37:31.331Z,13.98
2019-05-10T06:40:44.753Z,14.32
2019-05-10T06:43:45.779Z,14.60
2019-05-10T06:46:48.185Z,14.71
2019-05-10T06:49:52.622Z,14.77
2019-05-10T06:53:00.718Z,14.76
2019-05-10T06:56:03.218Z,14.85
2019-05-10T06:59:13.603Z,14.95
2019-05-10T07:02:13.847Z,14.78
2019-05-10T07:05:18.605Z,14.61
2019-05-10T07:08:23.337Z,14.57
2019-05-10T07:11:27.770Z,14.48
2019-05-10T07:14:32.213Z,14.33
2019-05-10T07:17:45.274Z,14.25
2019-05-10T07:20:43.469Z,14.12
2019-05-10T07:23:48.087Z,14.04
2019-05-10T07:26:56.497Z,13.93
2019-05-10T07:29:59.014Z,14.01
2019-05-10T07:33:03.468Z,14.12
2019-05-10T07:36:14.346Z,14.16
2019-05-10T07:39:14.185Z,14.01
2019-05-10T07:42:18.638Z,13.97
2019-05-10T07:45:25.634Z,14.12
2019-05-10T07:48:29.239Z,14.10
2019-05-10T07:51:33.673Z,14.20
2019-05-10T07:54:45.116Z,14.03
2019-05-10T07:57:44.293Z,14.14
2019-05-10T08:00:48.736Z,14.20
2019-05-10T08:03:53.184Z,14.13
2019-05-10T08:06:59.729Z,14.03
2019-05-10T08:10:04.942Z,14.10
2019-05-10T08:13:09.846Z,14.26
2019-05-10T08:16:21.908Z,14.63
2019-05-10T08:19:21.053Z,15.18
2019-05-10T08:22:25.491Z,15.62
2019-05-10T08:25:36.491Z,15.49
2019-05-10T08:28:38.697Z,15.42
2019-05-10T08:31:49.060Z,14.90
2019-05-10T08:34:52.971Z,14.96
2019-05-10T08:37:55.481Z,15.07
2019-05-10T08:41:02.662Z,15.30
2019-05-10T08:44:16.617Z,15.66
2019-05-10T08:47:22.480Z,16.09
2019-05-10T08:50:34.513Z,16.41
2019-05-10T08:53:26.184Z,16.67
2019-05-10T08:56:33.026Z,16.51
2019-05-10T08:59:37.096Z,16.36
2019-05-10T09:02:42.705Z,16.72
2019-05-10T09:05:47.429Z,16.68
2019-05-10T09:08:52.976Z,16.33
2019-05-10T09:12:06.655Z,16.11
2019-05-10T09:15:10.201Z,16.18
2019-05-10T09:18:14.406Z,16.56
2019-05-10T09:21:18.846Z,17.03
2019-05-10T09:24:23.643Z,17.05
2019-05-10T09:27:29.415Z,16.63
2019-05-10T09:30:36.878Z,16.96
2019-05-10T09:33:49.371Z,17.30
2019-05-10T09:36:48.096Z,17.62
2019-05-10T09:40:04.274Z,17.75
2019-05-10T09:42:59.430Z,17.52
2019-05-10T09:46:05.178Z,17.50
2019-05-10T09:49:15.547Z,17.74
2019-05-10T09:52:18.763Z,17.98
2019-05-10T09:55:22.236Z,18.03
2019-05-10T09:58:28.231Z,17.85
2019-05-10T10:01:32.851Z,17.63
2019-05-10T10:04:37.534Z,17.59
2019-05-10T10:07:41.977Z,17.30
2019-05-10T10:10:47.573Z,16.93
2019-05-10T10:13:59.113Z,16.90
2019-05-10T10:17:02.769Z,16.81
2019-05-10T10:20:08.159Z,16.57
2019-05-10T10:23:11.601Z,16.59
2019-05-10T10:26:18.623Z,16.46
2019-05-10T10:29:22.556Z,16.41
2019-05-10T10:32:31.630Z,16.28
2019-05-10T10:35:33.441Z,16.23
2019-05-10T10:38:45.194Z,16.02
2019-05-10T10:41:44.115Z,16.00
2019-05-10T10:44:48.861Z,16.10
2019-05-10T10:47:53.591Z,16.13
2019-05-10T10:50:58.865Z,16.17
2019-05-10T10:54:03.457Z,16.23
2019-05-10T10:57:08.144Z,16.62
2019-05-10T11:00:13.065Z,17.22
2019-05-10T11:03:17.513Z,17.75
2019-05-10T11:06:22.293Z,17.86
2019-05-10T11:09:27.017Z,17.77
2019-05-10T11:12:31.755Z,18.13
2019-05-10T11:15:36.734Z,18.37
2019-05-10T11:18:41.971Z,18.75
2019-05-10T11:21:46.863Z,18.58
2019-05-10T11:24:59.633Z,18.80
2019-05-10T11:28:00.948Z,19.05
2019-05-10T11:31:04.018Z,19.28
2019-05-10T11:34:08.777Z,19.60
2019-05-10T11:37:15.975Z,19.32
2019-05-10T11:40:30.553Z,19.53
2019-05-10T11:43:27.101Z,19.38
2019-05-10T11:46:31.975Z,18.63
2019-05-10T11:49:36.414Z,18.12
2019-05-10T11:52:41.136Z,18.01
2019-05-10T11:55:45.799Z,17.83
2019-05-10T11:58:55.372Z,17.61
2019-05-10T12:01:59.607Z,17.46
2019-05-10T12:05:11.140Z,17.27
2019-05-10T12:08:13.080Z,17.05
2019-05-10T12:14:22.453Z,16.37
2019-05-10T12:17:26.904Z,16.31
2019-05-10T12:20:41.175Z,16.35
2019-05-10T12:23:45.947Z,16.38
2019-05-10T12:26:50.013Z,16.80
2019-05-10T12:29:55.968Z,16.76
2019-05-10T12:33:02.248Z,16.81
2019-05-10T12:36:02.534Z,16.92
2019-05-10T12:39:08.417Z,16.93
2019-05-10T12:42:14.462Z,16.91
2019-05-10T12:45:23.015Z,17.21
2019-05-10T12:48:25.740Z,17.74
2019-05-10T12:51:31.262Z,18.29
2019-05-10T12:54:36.227Z,18.51
2019-05-10T12:57:43.400Z,18.81
2019-05-10T13:00:52.366Z,19.03
2019-05-10T13:03:53.591Z,19.31
2019-05-10T13:06:58.041Z,19.29
2019-05-10T13:10:05.718Z,19.00
2019-05-10T13:13:08.676Z,18.56
2019-05-10T13:16:13.119Z,18.21
2019-05-10T13:19:20.028Z,17.66
2019-05-10T13:22:23.732Z,17.55
2019-05-10T13:25:28.241Z,17.29
2019-05-10T13:28:32.687Z,16.83
2019-05-10T13:31:42.157Z,16.81
2019-05-10T13:34:43.576Z,16.93
2019-05-10T13:37:48.291Z,16.64
2019-05-10T13:40:53.022Z,16.41
2019-05-10T13:43:59.009Z,15.90
2019-05-10T13:47:05.195Z,15.64
2019-05-10T13:50:10.914Z,15.37
2019-05-10T13:53:21.064Z,15.26
2019-05-10T13:56:21.527Z,15.04
2019-05-10T13:59:25.975Z,14.64
2019-05-10T14:02:34.345Z,14.65
2019-05-10T14:05:40.035Z,14.72
2019-05-10T14:08:48.158Z,14.86
2019-05-10T14:11:49.243Z,14.85
2019-05-10T14:14:55.586Z,15.31
2019-05-10T14:18:00.172Z,16.05
2019-05-10T14:21:04.611Z,16.58
2019-05-10T14:24:15.194Z,17.02
2019-05-10T14:27:15.455Z,17.46
2019-05-10T14:30:20.283Z,17.53
2019-05-10T14:33:24.728Z,17.48
2019-05-10T14:36:34.115Z,17.40
2019-05-10T14:39:35.602Z,17.72
2019-05-10T14:42:40.046Z,18.11
2019-05-10T14:45:45.580Z,18.20
2019-05-10T14:48:50.019Z,18.45
2019-05-10T14:51:59.582Z,18.82
2019-05-10T14:55:00.911Z,18.87
2019-05-10T14:58:05.344Z,18.76
2019-05-10T15:01:09.791Z,18.77
2019-05-10T15:04:20.252Z,18.63
2019-05-10T15:07:20.958Z,18.39
2019-05-10T15:10:25.403Z,18.91
2019-05-10T15:13:30.104Z,19.47
2019-05-10T15:16:34.611Z,19.34
2019-05-10T15:19:39.060Z,18.76
2019-05-10T15:22:43.496Z,18.55
2019-05-10T15:25:56.595Z,18.78
2019-05-10T15:28:54.376Z,18.90
2019-05-10T15:31:59.097Z,18.67
2019-05-10T15:35:07.077Z,18.91
2019-05-10T15:38:10.608Z,19.00
2019-05-10T15:41:16.831Z,18.98
2019-05-10T15:44:30.125Z,18.99
2019-05-10T15:47:27.382Z,19.11
2019-05-10T15:50:32.611Z,19.27
2019-05-10T15:53:38.012Z,19.39
2019-05-10T15:56:44.191Z,19.42
2019-05-10T15:59:50.580Z,19.17
2019-05-10T16:02:55.244Z,18.57
2019-05-10T16:06:01.056Z,18.11
2019-05-10T16:09:16.966Z,17.74
2019-05-10T16:12:13.981Z,17.61
2019-05-10T16:15:19.869Z,17.39
2019-05-10T16:18:24.581Z,17.52
2019-05-10T16:21:29.019Z,17.70
2019-05-10T16:24:33.455Z,18.00
2019-05-10T16:27:44.806Z,18.13
2019-05-10T16:30:47.024Z,18.09
2019-05-10T16:33:53.476Z,18.04
2019-05-10T16:36:56.979Z,17.77
2019-05-10T16:40:01.419Z,17.57
2019-05-10T16:43:06.978Z,17.42
2019-05-10T16:46:12.326Z,17.10
2019-05-10T16:49:17.357Z,16.83
2019-05-10T16:52:26.110Z,16.76
2019-05-10T16:55:28.215Z,16.72
2019-05-10T16:58:32.660Z,16.76
2019-05-10T17:01:37.106Z,16.79
2019-05-10T17:04:41.807Z,16.66
2019-05-10T17:07:46.248Z,16.39
2019-05-10T17:10:50.685Z,16.39
2019-05-10T17:13:55.775Z,16.39
2019-05-10T17:17:00.310Z,16.39
2019-05-10T17:20:13.872Z,16.34
2019-05-10T17:23:15.520Z,16.35
2019-05-10T17:26:19.971Z,16.33
2019-05-10T17:29:24.673Z,16.34
2019-05-10T17:32:31.292Z,16.29
2019-05-10T17:35:36.620Z,16.12
2019-05-10T17:38:47.510Z,16.18
2019-05-10T17:41:48.520Z,16.20
2019-05-10T17:44:55.281Z,16.24
2019-05-10T17:48:03.505Z,16.24
2019-05-10T17:51:05.653Z,16.28
2019-05-10T17:54:10.404Z,16.24
2019-05-10T17:57:16.481Z,16.12
2019-05-10T18:00:22.235Z,16.00
2019-05-10T18:03:26.958Z,15.75
2019-05-10T18:06:31.987Z,15.58
2019-05-10T18:09:36.443Z,15.45
2019-05-10T18:12:41.146Z,15.39
2019-05-10T18:15:45.842Z,15.29
2019-05-10T18:18:50.608Z,15.21
2019-05-10T18:22:00.054Z,15.06
2019-05-10T18:25:01.502Z,14.93
2019-05-10T18:28:06.232Z,14.96
2019-05-10T18:31:10.671Z,14.83
2019-05-10T18:34:15.389Z,14.68
2019-05-10T18:37:21.882Z,14.61
2019-05-10T18:40:31.752Z,14.56
2019-05-10T18:43:35.431Z,14.58
2019-05-10T18:46:39.223Z,14.47
2019-05-10T18:49:43.972Z,14.42
2019-05-10T18:52:48.399Z,14.42
2019-05-10T18:55:52.834Z,14.30
2019-05-10T18:59:06.875Z,14.21
2019-05-10T19:02:03.438Z,14.13
2019-05-10T19:05:08.013Z,14.09
2019-05-10T19:08:12.866Z,14.07
2019-05-10T19:11:17.369Z,14.03
2019-05-10T19:14:23.931Z,14.03
2019-05-10T19:17:28.278Z,14.07
2019-05-10T19:20:32.722Z,14.15
2019-05-10T19:23:37.185Z,14.14
2019-05-10T19:26:41.597Z,14.12
2019-05-10T19:29:47.949Z,14.17
2019-05-10T19:32:56.532Z,14.12
2019-05-10T19:35:58.602Z,14.01
2019-05-10T19:39:03.040Z,14.04
2019-05-10T19:42:07.475Z,14.08
2019-05-10T19:45:13.037Z,14.04
2019-05-10T19:48:18.643Z,14.06
2019-05-10T19:51:23.388Z,14.02
2019-05-10T19:54:28.113Z,14.09
2019-05-10T19:57:32.843Z,14.10
2019-05-10T20:00:37.581Z,14.08
2019-05-10T20:03:42.319Z,14.02
2019-05-10T20:06:47.031Z,14.08
2019-05-10T20:09:51.764Z,14.12
2019-05-10T20:12:56.198Z,14.09
2019-05-10T20:16:01.606Z,14.04
2019-05-10T20:19:09.213Z,13.98
2019-05-10T20:22:13.172Z,13.95
2019-05-10T20:25:18.542Z,13.93
2019-05-10T20:28:23.252Z,13.98
2019-05-10T20:31:30.615Z,13.96
2019-05-10T20:34:33.986Z,13.91
2019-05-10T20:37:38.422Z,13.84
2019-05-10T20:40:43.476Z,13.83
2019-05-10T20:43:48.208Z,13.77
2019-05-10T20:46:52.647Z,13.77
2019-05-10T20:49:57.365Z,13.73
2019-05-10T20:53:01.799Z,13.74
2019-05-10T20:56:06.961Z,13.76
2019-05-10T20:59:12.577Z,13.61
2019-05-10T21:02:17.315Z,13.53
2019-05-10T21:05:21.766Z,13.65
2019-05-10T21:08:26.467Z,13.60
2019-05-10T21:11:31.704Z,13.53
2019-05-10T21:14:36.152Z,13.58
2019-05-10T21:17:40.866Z,13.52
2019-05-10T21:20:45.316Z,13.59
2019-05-10T21:23:50.018Z,13.62
2019-05-10T21:26:54.485Z,13.72
2019-05-10T21:29:59.359Z,13.71
2019-05-10T21:33:04.421Z,13.66
2019-05-10T21:36:09.143Z,13.67
2019-05-10T21:39:13.878Z,13.67
2019-05-10T21:42:18.639Z,13.57
2019-05-10T21:45:23.079Z,13.56
2019-05-10T21:48:29.885Z,13.59
2019-05-10T21:51:34.532Z,13.51
2019-05-10T21:54:39.110Z,13.48
2019-05-10T21:57:43.792Z,13.36
2019-05-10T22:00:51.740Z,13.45
2019-05-10T22:03:58.007Z,13.43
2019-05-10T22:07:02.836Z,13.48
2019-05-10T22:10:08.955Z,13.53
2019-05-10T22:13:13.724Z,13.56
2019-05-10T22:16:18.564Z,13.35
2019-05-10T22:19:23.035Z,13.30
2019-05-10T22:22:27.526Z,13.25
2019-05-10T22:25:32.340Z,13.26
2019-05-10T22:28:36.826Z,13.16
2019-05-10T22:31:41.606Z,13.11
2019-05-10T22:34:46.436Z,13.20
2019-05-10T22:37:50.997Z,13.18
2019-05-10T22:40:55.835Z,13.16
2019-05-10T22:44:00.332Z,13.12
2019-05-10T22:47:04.862Z,13.18
2019-05-10T22:50:10.987Z,13.14
2019-05-10T22:53:15.843Z,13.13
2019-05-10T22:56:20.325Z,13.15
2019-05-10T22:59:24.806Z,13.10
2019-05-10T23:02:29.648Z,13.06
2019-05-10T23:05:34.104Z,13.14
2019-05-10T23:08:39.048Z,13.08
2019-05-10T23:11:45.574Z,13.12
2019-05-10T23:14:55.491Z,13.03
2019-05-10T23:17:59.516Z,12.94
2019-05-10T23:21:03.986Z,12.82
2019-05-10T23:24:08.465Z,12.75
2019-05-10T23:27:14.026Z,12.90
2019-05-10T23:30:19.171Z,12.68
2019-05-10T23:33:24.003Z,12.57
2019-05-10T23:36:28.745Z,12.46
2019-05-10T23:39:40.693Z,12.45
2019-05-10T23:42:40.139Z,12.45
2019-05-10T23:45:44.973Z,12.24
2019-05-10T23:48:49.450Z,12.15
2019-05-10T23:51:53.928Z,12.24
2019-05-10T23:54:58.407Z,12.19
2019-05-10T23:58:03.175Z,12.24
